Time;durP1;ratioP1;P1;durP2;ratioP2;P2;SDS_P1;SDS_P2;PMS_P1;PMS_P2;Temp;Humidity;BMP_temperature;BMP_pressure;BME280_temperature;BME280_humidity;BME280_pressure;Samples;Min_cycle;Max_cycle;Signal;HPM_P1;HPM_P2
2022/11/11 05:04:12;;;;;;;1999.90;999.90;;;3.80;99.90;;;;;;5017881;28;20121;-82
2022/11/11 05:09:22;;;;;;;1999.90;999.90;;;3.80;99.90;;;;;;5018248;28;20058;-82
2022/11/11 05:11:47;;;;;;;1999.90;999.90;;;3.70;99.90;;;;;;5017519;28;20090;-82
2022/11/11 05:22:39;;;;;;;1999.90;999.90;;;3.70;99.90;;;;;;5017400;28;20034;-82
2022/11/11 05:25:25;;;;;;;1999.90;999.90;;;3.80;99.90;;;;;;5015499;28;20045;-82
2022/11/11 05:27:52;;;;;;;1999.90;999.90;;;3.70;99.90;;;;;;5015597;28;20117;-82
2022/11/11 05:30:18;;;;;;;1999.90;999.90;;;3.70;99.90;;;;;;5016882;28;20486;-85
2022/11/11 05:32:44;;;;;;;1999.90;999.90;;;3.70;99.90;;;;;;5017100;28;20464;-82
2022/11/11 05:35:11;;;;;;;1999.90;999.90;;;3.60;99.90;;;;;;5015645;28;20116;-83
2022/11/11 05:37:37;;;;;;;1999.90;999.90;;;3.50;99.90;;;;;;5015321;28;20030;-82
2022/11/11 05:40:03;;;;;;;1999.90;999.90;;;3.60;99.90;;;;;;5016414;28;20074;-83
2022/11/11 05:42:28;;;;;;;1999.90;999.90;;;3.60;99.90;;;;;;5015124;28;20031;-82
2022/11/11 05:44:54;;;;;;;1999.90;999.90;;;3.50;99.90;;;;;;5015105;28;20042;-82
2022/11/11 05:47:19;;;;;;;1999.90;999.90;;;3.50;99.90;;;;;;5015278;28;20034;-82
2022/11/11 05:49:45;;;;;;;1999.90;999.90;;;3.50;99.90;;;;;;5016427;28;20034;-82
2022/11/11 05:52:12;;;;;;;1999.90;999.90;;;3.40;99.90;;;;;;5016611;28;20038;-82
2022/11/11 05:54:38;;;;;;;1999.90;999.90;;;3.40;99.90;;;;;;5017896;28;20042;-87
2022/11/11 05:57:04;;;;;;;1999.90;999.90;;;3.40;99.90;;;;;;5040867;28;20027;-89
2022/11/11 05:59:30;;;;;;;1999.90;999.90;;;3.50;99.90;;;;;;5036556;28;20038;-82
2022/11/11 06:01:55;;;;;;;1999.90;999.90;;;3.50;99.90;;;;;;5016987;28;20034;-82
2022/11/11 06:04:21;;;;;;;1999.90;999.90;;;3.50;99.90;;;;;;5017507;28;20042;-82
2022/11/11 06:06:47;;;;;;;1999.90;999.90;;;3.50;99.90;;;;;;5015761;28;20057;-81
2022/11/11 06:09:12;;;;;;;1999.90;999.90;;;3.50;99.90;;;;;;5016239;28;20030;-82
2022/11/11 06:11:38;;;;;;;1999.90;999.90;;;3.60;99.90;;;;;;5016147;28;20508;-82
2022/11/11 06:14:04;;;;;;;1999.90;999.90;;;3.60;99.90;;;;;;5016941;28;20038;-83
2022/11/11 06:16:30;;;;;;;1999.90;999.90;;;3.60;99.90;;;;;;5016714;28;20105;-83
2022/11/11 06:18:55;;;;;;;1999.90;999.90;;;3.60;99.90;;;;;;5017646;28;20403;-83
2022/11/11 06:21:21;;;;;;;1999.90;999.90;;;3.60;99.90;;;;;;5017365;28;20030;-84
2022/11/11 06:23:47;;;;;;;1999.90;999.90;;;3.60;99.90;;;;;;5017125;28;20062;-82
2022/11/11 06:26:13;;;;;;;1999.90;999.90;;;3.60;99.90;;;;;;5016646;28;20045;-82
2022/11/11 06:28:43;;;;;;;1999.90;999.90;;;3.60;99.90;;;;;;5014781;28;20831;-82
2022/11/11 06:31:11;;;;;;;1999.90;999.90;;;3.70;99.90;;;;;;5015780;28;20034;-84
2022/11/11 06:33:38;;;;;;;1999.90;999.90;;;3.60;99.90;;;;;;5017295;28;20042;-83
2022/11/11 06:36:05;;;;;;;1999.90;999.90;;;3.70;99.90;;;;;;5015262;28;20566;-82
2022/11/11 06:38:31;;;;;;;1999.90;999.90;;;3.60;99.90;;;;;;5016967;28;20034;-82
2022/11/11 06:40:56;;;;;;;1999.90;999.90;;;3.50;99.90;;;;;;5020316;28;20026;-83
2022/11/11 06:43:22;;;;;;;1999.90;999.90;;;3.50;99.90;;;;;;5017487;28;20089;-82
2022/11/11 06:45:52;;;;;;;1999.90;999.90;;;3.40;99.90;;;;;;5019581;28;20091;-86
2022/11/11 06:48:18;;;;;;;1999.90;999.90;;;3.30;99.90;;;;;;5013272;28;20085;-86
2022/11/11 06:50:44;;;;;;;1999.90;999.90;;;3.40;99.90;;;;;;5016506;28;20125;-86
2022/11/11 06:53:12;;;;;;;1999.90;999.90;;;3.50;99.90;;;;;;5016145;28;20043;-83
2022/11/11 06:55:38;;;;;;;1999.90;999.90;;;3.50;99.90;;;;;;5015079;28;20034;-83
2022/11/11 06:58:08;;;;;;;1999.90;999.90;;;3.50;99.90;;;;;;5017054;28;20488;-84
2022/11/11 07:00:35;;;;;;;1999.90;999.90;;;3.50;99.90;;;;;;5016429;28;21537;-81
2022/11/11 07:03:01;;;;;;;1999.90;999.90;;;3.50;99.90;;;;;;5015505;28;20089;-80
2022/11/11 07:05:27;;;;;;;1999.90;999.90;;;3.50;99.90;;;;;;5015074;28;20496;-81
2022/11/11 07:07:52;;;;;;;1999.90;999.90;;;3.50;99.90;;;;;;5015550;28;20037;-81
2022/11/11 07:10:18;;;;;;;1999.90;999.90;;;3.50;99.90;;;;;;5016634;28;20038;-82
2022/11/11 07:12:44;;;;;;;1999.90;999.90;;;3.50;99.90;;;;;;5015309;28;20086;-80
2022/11/11 07:15:10;;;;;;;1999.90;999.90;;;3.40;99.90;;;;;;5015051;28;20042;-81
2022/11/11 07:17:35;;;;;;;1999.90;999.90;;;3.40;99.90;;;;;;5015103;28;20376;-81
2022/11/11 07:20:01;;;;;;;1999.90;999.90;;;3.40;99.90;;;;;;5016194;28;20045;-82
2022/11/11 07:22:26;;;;;;;1999.90;999.90;;;3.40;99.90;;;;;;5015526;28;20511;-81
2022/11/11 07:24:52;;;;;;;1999.90;999.90;;;3.40;99.90;;;;;;5019146;28;20045;-80
2022/11/11 07:27:17;;;;;;;1999.90;999.90;;;3.40;99.90;;;;;;5020069;28;20045;-81
2022/11/11 07:29:43;;;;;;;1999.90;999.90;;;3.50;99.90;;;;;;5021175;28;20065;-80
2022/11/11 07:32:09;;;;;;;1999.90;999.90;;;3.40;99.90;;;;;;5018439;28;20070;-80
2022/11/11 07:34:34;;;;;;;1999.90;999.90;;;3.60;99.90;;;;;;5021972;28;20050;-80
2022/11/11 07:37:00;;;;;;;1999.90;999.90;;;3.60;99.90;;;;;;5021522;28;20032;-80
2022/11/11 07:39:25;;;;;;;1999.90;999.90;;;3.70;99.90;;;;;;5018393;28;20042;-80
2022/11/11 07:41:51;;;;;;;1999.90;999.90;;;3.70;99.90;;;;;;5021322;28;20113;-80
2022/11/11 07:44:16;;;;;;;1999.90;999.90;;;3.80;99.90;;;;;;5019314;28;20031;-82
2022/11/11 07:46:42;;;;;;;1999.90;999.90;;;3.80;99.90;;;;;;5018978;28;20055;-81
2022/11/11 07:49:08;;;;;;;1999.90;999.90;;;3.80;99.90;;;;;;5020945;28;20142;-81
2022/11/11 07:51:33;;;;;;;1999.90;999.90;;;3.80;99.90;;;;;;5020075;28;20061;-81
2022/11/11 07:53:59;;;;;;;1999.90;999.90;;;4.00;99.90;;;;;;5019853;28;20468;-81
2022/11/11 07:56:24;;;;;;;1999.90;999.90;;;4.00;99.90;;;;;;5019130;28;20038;-81
2022/11/11 07:58:50;;;;;;;1999.90;999.90;;;4.00;99.90;;;;;;5021117;28;20042;-81
2022/11/11 08:01:16;;;;;;;1999.90;999.90;;;4.10;99.90;;;;;;5019591;28;20102;-81
2022/11/11 08:03:48;;;;;;;1999.90;999.90;;;4.20;99.90;;;;;;5018805;28;20041;-81
2022/11/11 08:06:23;;;;;;;1999.90;999.90;;;4.30;99.90;;;;;;5019897;28;20599;-81
2022/11/11 08:08:49;;;;;;;1999.90;999.90;;;4.50;99.90;;;;;;5019607;28;20236;-81
2022/11/11 08:11:16;;;;;;;1999.90;999.90;;;4.60;99.90;;;;;;5019927;28;20049;-82
2022/11/11 08:13:45;;;;;;;1999.90;999.90;;;4.70;99.90;;;;;;5020455;28;20039;-81
2022/11/11 08:16:12;;;;;;;1999.90;999.90;;;4.80;99.90;;;;;;5021283;28;20035;-81
2022/11/11 08:18:38;;;;;;;1999.90;999.90;;;4.90;99.90;;;;;;5021445;28;20401;-80
2022/11/11 08:21:04;;;;;;;1999.90;999.90;;;5.00;99.90;;;;;;5016195;28;20044;-83
2022/11/11 08:23:33;;;;;;;1999.90;999.90;;;5.00;99.90;;;;;;5015168;28;20744;-83
2022/11/11 08:26:00;;;;;;;1999.90;999.90;;;5.10;99.90;;;;;;5014423;28;20118;-81
2022/11/11 08:28:27;;;;;;;1999.90;999.90;;;5.10;99.90;;;;;;5014059;28;20070;-84
2022/11/11 08:30:52;;;;;;;1999.90;999.90;;;5.20;99.90;;;;;;5017370;28;20108;-85
2022/11/11 08:33:18;;;;;;;1999.90;999.90;;;5.30;99.90;;;;;;5021363;28;20065;-82
2022/11/11 08:35:44;;;;;;;1999.90;999.90;;;5.30;99.90;;;;;;5016433;28;20026;-81
2022/11/11 08:38:09;;;;;;;1999.90;999.90;;;5.40;99.90;;;;;;5014958;28;20034;-81
2022/11/11 08:40:35;;;;;;;1999.90;999.90;;;5.60;99.90;;;;;;5013350;28;20046;-81
2022/11/11 08:43:01;;;;;;;1999.90;999.90;;;5.60;99.90;;;;;;5014070;28;20030;-81
2022/11/11 08:45:26;;;;;;;1999.90;999.90;;;5.60;99.90;;;;;;5017898;28;20034;-81
2022/11/11 08:47:52;;;;;;;1999.90;999.90;;;5.60;99.90;;;;;;5013985;28;20077;-82
2022/11/11 08:50:18;;;;;;;1999.90;999.90;;;5.70;99.90;;;;;;5016102;28;20456;-82
2022/11/11 08:52:48;;;;;;;1999.90;999.90;;;5.90;99.90;;;;;;5017889;28;20064;-82
2022/11/11 08:55:14;;;;;;;1999.90;999.90;;;5.80;99.90;;;;;;5017549;28;20041;-83
2022/11/11 08:57:40;;;;;;;1999.90;999.90;;;5.90;99.90;;;;;;5018527;28;20492;-82
2022/11/11 09:00:07;;;;;;;1999.90;999.90;;;6.00;99.90;;;;;;5018594;28;20042;-82
2022/11/11 09:02:33;;;;;;;1999.90;999.90;;;6.30;99.90;;;;;;5016376;28;20034;-83
2022/11/11 09:04:58;;;;;;;1999.90;999.90;;;6.40;99.90;;;;;;5023203;28;20042;-84
2022/11/11 09:07:25;;;;;;;1999.90;999.90;;;6.40;99.90;;;;;;5043408;28;20034;-84
2022/11/11 09:09:54;;;;;;;1999.90;999.90;;;6.60;99.90;;;;;;5036809;28;20138;-81
2022/11/11 09:12:19;;;;;;;1999.90;999.90;;;6.60;99.90;;;;;;5023799;28;20031;-78
2022/11/11 09:14:45;;;;;;;1999.90;999.90;;;6.70;99.90;;;;;;5020012;28;20031;-84
2022/11/11 09:17:11;;;;;;;1999.90;999.90;;;6.50;99.90;;;;;;5019256;28;20058;-84
2022/11/11 09:19:36;;;;;;;1999.90;999.90;;;6.60;99.90;;;;;;5020946;28;20050;-82
2022/11/11 09:22:02;;;;;;;1999.90;999.90;;;6.70;99.90;;;;;;5022950;28;20529;-85
2022/11/11 09:24:28;;;;;;;1999.90;999.90;;;7.00;99.90;;;;;;5026297;28;20113;-86
2022/11/11 09:26:53;;;;;;;1999.90;999.90;;;7.00;99.90;;;;;;5021141;28;20041;-82
2022/11/11 09:29:19;;;;;;;1999.90;999.90;;;7.20;99.90;;;;;;5023520;28;20049;-84
2022/11/11 09:31:45;;;;;;;1999.90;999.90;;;7.30;99.90;;;;;;5023565;28;20040;-82
2022/11/11 09:34:11;;;;;;;1999.90;999.90;;;7.30;99.90;;;;;;5020040;28;20484;-82
2022/11/11 09:36:37;;;;;;;1999.90;999.90;;;7.20;99.90;;;;;;5019799;28;20089;-86
2022/11/11 09:39:02;;;;;;;1999.90;999.90;;;7.30;99.90;;;;;;5019907;28;20484;-84
2022/11/11 09:41:47;;;;;;;1999.90;999.90;;;7.20;99.90;;;;;;5017260;28;20865;-84
2022/11/11 09:44:23;;;;;;;1999.90;999.90;;;7.20;99.90;;;;;;5020802;28;20042;-84
2022/11/11 09:47:09;;;;;;;1999.90;999.90;;;7.30;99.90;;;;;;5022775;28;20030;-83
2022/11/11 09:49:51;;;;;;;1999.90;999.90;;;7.20;99.90;;;;;;4998929;28;20054;-88
2022/11/11 09:52:30;;;;;;;1999.90;999.90;;;7.20;99.90;;;;;;4997140;28;20057;-89
2022/11/11 09:54:58;;;;;;;1999.90;999.90;;;7.30;99.90;;;;;;4997607;28;20078;-89
2022/11/11 09:57:39;;;;;;;1999.90;999.90;;;7.60;99.90;;;;;;4996622;28;20039;-89
2022/11/11 10:00:15;;;;;;;1999.90;999.90;;;7.60;99.90;;;;;;4998436;28;20077;-88
2022/11/11 10:02:49;;;;;;;1999.90;999.90;;;7.80;99.90;;;;;;4999614;28;20031;-81
2022/11/11 10:05:25;;;;;;;1999.90;999.90;;;8.10;99.90;;;;;;5002067;28;20531;-85
2022/11/11 10:08:16;;;;;;;1999.90;999.90;;;8.20;99.90;;;;;;5000066;28;20090;-83
2022/11/11 10:10:46;;;;;;;1999.90;999.90;;;8.40;99.90;;;;;;5004304;28;20122;-83
2022/11/11 10:13:22;;;;;;;1999.90;999.90;;;8.40;99.90;;;;;;4996920;28;20027;-85
2022/11/11 10:16:19;;;;;;;1999.90;999.90;;;8.70;99.90;;;;;;4999701;28;20121;-86
2022/11/11 10:19:35;;;;;;;1999.90;999.90;;;9.00;99.90;;;;;;4997548;28;20135;-87
2022/11/11 10:22:12;;;;;;;1999.90;999.90;;;9.10;99.90;;;;;;4959314;28;20041;-84
2022/11/11 10:24:41;;;;;;;1999.90;999.90;;;8.90;99.90;;;;;;4997143;28;20034;-78
2022/11/11 10:27:19;;;;;;;1999.90;999.90;;;8.70;99.90;;;;;;5001416;28;20178;-84
2022/11/11 10:29:45;;;;;;;1999.90;999.90;;;8.60;99.90;;;;;;4999204;28;20057;-81
2022/11/11 10:32:37;;;;;;;1999.90;999.90;;;8.70;99.90;;;;;;4996049;28;20076;-86
2022/11/11 10:35:19;;;;;;;1999.90;999.90;;;8.40;99.90;;;;;;4992503;28;20042;-84
2022/11/11 10:37:45;;;;;;;1999.90;999.90;;;8.30;99.90;;;;;;4997000;28;20067;-86
2022/11/11 10:40:25;;;;;;;1999.90;999.90;;;8.30;99.90;;;;;;4997271;28;20086;-83
2022/11/11 10:42:51;;;;;;;1999.90;999.90;;;8.30;99.90;;;;;;4997263;28;20090;-85
2022/11/11 10:45:26;;;;;;;1999.90;999.90;;;8.40;99.90;;;;;;4994822;28;20066;-86
2022/11/11 10:48:07;;;;;;;1999.90;999.90;;;8.50;99.90;;;;;;4994906;28;20031;-86
2022/11/11 10:50:38;;;;;;;1999.90;999.90;;;8.60;99.90;;;;;;4994811;28;20030;-86
2022/11/11 10:53:17;;;;;;;1999.90;999.90;;;8.50;99.90;;;;;;4994689;28;20039;-87
2022/11/11 10:55:50;;;;;;;1999.90;999.90;;;8.60;99.90;;;;;;4994621;28;20039;-87
2022/11/11 10:58:31;;;;;;;1999.90;999.90;;;8.60;99.90;;;;;;4996313;28;20039;-84
2022/11/11 11:01:00;;;;;;;1999.90;999.90;;;8.60;99.90;;;;;;4994667;28;20046;-86
2022/11/11 11:03:48;;;;;;;1999.90;999.90;;;8.60;99.90;;;;;;4996807;28;20105;-84
2022/11/11 11:06:25;;;;;;;1999.90;999.90;;;8.70;99.90;;;;;;4994386;28;20400;-85
2022/11/11 11:08:56;;;;;;;1999.90;999.90;;;8.70;99.90;;;;;;4995311;28;20045;-85
2022/11/11 11:11:29;;;;;;;1999.90;999.90;;;8.90;99.90;;;;;;4996065;28;20046;-83
2022/11/11 11:14:01;;;;;;;1999.90;999.90;;;9.00;99.90;;;;;;5000464;28;20062;-84
2022/11/11 11:16:37;;;;;;;1999.90;999.90;;;9.00;99.90;;;;;;5012575;28;20082;-84
2022/11/11 11:19:22;;;;;;;1999.90;999.90;;;9.10;99.90;;;;;;5011354;28;20054;-83
2022/11/11 11:21:55;;;;;;;1999.90;999.90;;;9.20;99.90;;;;;;5008538;28;20113;-80
2022/11/11 11:24:26;;;;;;;1999.90;999.90;;;9.40;99.90;;;;;;5009083;28;20073;-83
2022/11/11 11:26:55;;;;;;;1999.90;999.90;;;9.30;99.90;;;;;;5011755;28;20638;-82
2022/11/11 11:29:31;;;;;;;1999.90;999.90;;;9.30;99.90;;;;;;5010103;28;20058;-81
2022/11/11 11:32:17;;;;;;;1999.90;999.90;;;9.40;99.90;;;;;;5011630;28;20531;-83
2022/11/11 11:34:54;;;;;;;1999.90;999.90;;;9.70;99.90;;;;;;5003611;28;20045;-81
2022/11/11 11:37:23;;;;;;;1999.90;999.90;;;9.90;99.90;;;;;;5007983;28;20027;-83
2022/11/11 11:40:01;;;;;;;1999.90;999.90;;;10.10;99.90;;;;;;4999674;28;20093;-85
2022/11/11 11:42:38;;;;;;;1999.90;999.90;;;10.20;99.90;;;;;;4994877;28;20042;-84
2022/11/11 11:45:24;;;;;;;1999.90;999.90;;;10.30;99.90;;;;;;4996500;28;20039;-82
2022/11/11 11:47:59;;;;;;;1999.90;999.90;;;10.40;99.90;;;;;;4997531;28;20045;-84
2022/11/11 11:50:50;;;;;;;1999.90;999.90;;;10.50;99.90;;;;;;4997402;28;20035;-80
2022/11/11 11:53:34;;;;;;;1999.90;999.90;;;10.60;99.90;;;;;;4998127;28;20630;-82
2022/11/11 11:56:27;;;;;;;1999.90;999.90;;;10.70;99.90;;;;;;4999232;28;20035;-84
2022/11/11 11:59:30;;;;;;;1999.90;999.90;;;10.90;99.90;;;;;;4995526;28;20039;-84
2022/11/11 12:02:09;;;;;;;1999.90;999.90;;;11.00;99.90;;;;;;5002484;28;20039;-84
2022/11/11 12:05:00;;;;;;;1999.90;999.90;;;11.20;99.90;;;;;;5004525;28;20031;-84
2022/11/11 12:07:57;;;;;;;1999.90;999.90;;;11.30;99.90;;;;;;5002890;28;20039;-84
2022/11/11 12:10:36;;;;;;;1999.90;999.90;;;11.40;99.90;;;;;;4997872;28;20039;-85
2022/11/11 12:13:31;;;;;;;1999.90;999.90;;;11.40;99.90;;;;;;4998204;28;20151;-85
2022/11/11 12:16:15;;;;;;;1999.90;999.90;;;11.50;99.90;;;;;;5018944;28;20045;-86
2022/11/11 12:19:17;;;;;;;1999.90;999.90;;;11.60;99.90;;;;;;5019015;28;20046;-86
2022/11/11 12:22:05;;;;;;;1999.90;999.90;;;11.70;99.90;;;;;;4996315;28;20496;-83
2022/11/11 12:24:36;;;;;;;1999.90;999.90;;;11.80;99.90;;;;;;4996667;28;20034;-85
2022/11/11 12:27:15;;;;;;;1999.90;999.90;;;11.80;99.90;;;;;;4998192;28;20030;-83
2022/11/11 12:29:47;;;;;;;1999.90;999.90;;;11.90;99.90;;;;;;4997276;28;20126;-84
2022/11/11 12:32:37;;;;;;;1999.90;999.90;;;11.80;99.90;;;;;;4997342;28;20370;-82
2022/11/11 12:35:25;;;;;;;1999.90;999.90;;;11.70;99.90;;;;;;4998243;28;20558;-83
2022/11/11 12:38:45;;;;;;;1999.90;999.90;;;11.70;99.90;;;;;;4998126;28;20046;-83
2022/11/11 12:41:32;;;;;;;1999.90;999.90;;;11.60;99.90;;;;;;4938244;29;20228;-82
2022/11/11 12:44:09;;;;;;;1999.90;999.90;;;11.70;99.90;;;;;;4992219;28;20106;-85
2022/11/11 12:46:44;;;;;;;1999.90;999.90;;;11.80;99.90;;;;;;4999758;28;20035;-85
2022/11/11 12:49:18;;;;;;;1999.90;999.90;;;12.00;99.90;;;;;;4999678;28;20101;-86
2022/11/11 12:52:02;;;;;;;1999.90;999.90;;;12.10;99.90;;;;;;5000269;28;20511;-91
2022/11/11 12:54:48;;;;;;;1999.90;999.90;;;12.10;99.90;;;;;;4998627;28;20045;-85
2022/11/11 12:57:26;;;;;;;1999.90;999.90;;;12.20;99.90;;;;;;4998863;28;20122;-85
2022/11/11 13:00:18;;;;;;;1999.90;999.90;;;12.30;99.90;;;;;;4999358;28;20047;-85
2022/11/11 13:03:05;;;;;;;1999.90;999.90;;;12.40;99.90;;;;;;4999061;28;20508;-83
2022/11/11 13:05:43;;;;;;;1999.90;999.90;;;12.40;99.90;;;;;;4997381;28;20157;-82
2022/11/11 13:08:50;;;;;;;1999.90;999.90;;;12.50;99.90;;;;;;4997828;28;20035;-83
2022/11/11 13:11:30;;;;;;;1999.90;999.90;;;12.50;99.90;;;;;;4991905;28;20049;-83
2022/11/11 13:14:28;;;;;;;1999.90;999.90;;;12.40;99.90;;;;;;4998920;28;20082;-83
2022/11/11 13:16:57;;;;;;;1999.90;999.90;;;12.40;99.90;;;;;;4998728;28;20031;-83
2022/11/11 13:19:27;;;;;;;1999.90;999.90;;;12.40;99.90;;;;;;4998420;28;20034;-84
2022/11/11 13:22:13;;;;;;;1999.90;999.90;;;12.30;99.90;;;;;;4997069;28;20041;-84
2022/11/11 13:24:39;;;;;;;1999.90;999.90;;;12.20;99.90;;;;;;4995758;28;20076;-85
2022/11/11 13:27:31;;;;;;;1999.90;999.90;;;12.20;99.90;;;;;;4999123;28;20031;-84
2022/11/11 13:30:13;;;;;;;1999.90;999.90;;;12.10;99.90;;;;;;4997299;28;20110;-84
2022/11/11 13:32:47;;;;;;;1999.90;999.90;;;12.10;99.90;;;;;;4998383;28;20050;-85
2022/11/11 13:35:48;;;;;;;1999.90;999.90;;;12.00;99.90;;;;;;4997719;28;20069;-82
2022/11/11 13:38:34;;;;;;;1999.90;999.90;;;11.90;99.90;;;;;;4996587;28;20469;-83
2022/11/11 13:41:04;;;;;;;1999.90;999.90;;;11.90;99.90;;;;;;4996340;28;20043;-82
2022/11/11 13:43:29;;;;;;;1999.90;999.90;;;11.90;99.90;;;;;;4997291;28;20038;-83
2022/11/11 13:45:57;;;;;;;1999.90;999.90;;;11.80;99.90;;;;;;4996017;28;20061;-83
2022/11/11 13:48:32;;;;;;;1999.90;999.90;;;11.70;99.90;;;;;;4997474;28;20042;-82
2022/11/11 13:51:13;;;;;;;1999.90;999.90;;;11.70;99.90;;;;;;4997379;28;20528;-82
2022/11/11 13:53:40;;;;;;;1999.90;999.90;;;11.60;99.90;;;;;;4995916;28;20046;-83
2022/11/11 13:56:10;;;;;;;1999.90;999.90;;;11.60;99.90;;;;;;4995615;28;20206;-84
2022/11/11 13:58:40;;;;;;;1999.90;999.90;;;11.50;99.90;;;;;;4997214;28;20109;-83
2022/11/11 14:01:08;;;;;;;1999.90;999.90;;;11.50;99.90;;;;;;4995604;28;20045;-84
2022/11/11 14:03:43;;;;;;;1999.90;999.90;;;11.40;99.90;;;;;;4996022;28;20098;-84
2022/11/11 14:06:15;;;;;;;1999.90;999.90;;;11.50;99.90;;;;;;4996472;28;20043;-84
2022/11/11 14:08:46;;;;;;;1999.90;999.90;;;11.40;99.90;;;;;;4996455;28;20091;-84
2022/11/11 14:11:24;;;;;;;1999.90;999.90;;;11.50;99.90;;;;;;4997378;28;20580;-84
2022/11/11 14:13:55;;;;;;;1999.90;999.90;;;11.40;99.90;;;;;;4996373;28;20031;-84
2022/11/11 14:16:36;;;;;;;1999.90;999.90;;;11.40;99.90;;;;;;4997018;28;20515;-84
2022/11/11 14:19:20;;;;;;;1999.90;999.90;;;11.30;99.90;;;;;;4997481;28;20187;-83
2022/11/11 14:22:05;;;;;;;1999.90;999.90;;;11.40;99.90;;;;;;4995643;28;20037;-83
2022/11/11 14:24:37;;;;;;;1999.90;999.90;;;11.40;99.90;;;;;;4994888;28;20134;-83
2022/11/11 14:27:15;;;;;;;1999.90;999.90;;;11.40;99.90;;;;;;4995725;28;20046;-83
2022/11/11 14:29:52;;;;;;;1999.90;999.90;;;11.40;99.90;;;;;;4996396;28;20045;-83
2022/11/11 14:32:39;;;;;;;1999.90;999.90;;;11.40;99.90;;;;;;4996037;28;20118;-83
2022/11/11 14:35:26;;;;;;;1999.90;999.90;;;11.40;99.90;;;;;;4997125;28;20026;-83
2022/11/11 14:38:05;;;;;;;1999.90;999.90;;;11.50;99.90;;;;;;4997171;28;20045;-83
2022/11/11 14:40:33;;;;;;;1999.90;999.90;;;11.50;99.90;;;;;;4996485;28;20065;-83
2022/11/11 14:43:19;;;;;;;1999.90;999.90;;;11.40;99.90;;;;;;4996080;28;20035;-84
2022/11/11 14:45:48;;;;;;;1999.90;999.90;;;11.50;99.90;;;;;;4998165;28;20031;-84
2022/11/11 14:48:48;;;;;;;1999.90;999.90;;;11.40;99.90;;;;;;4996051;28;20122;-84
2022/11/11 14:51:59;;;;;;;1999.90;999.90;;;11.40;99.90;;;;;;4989572;28;20047;-83
2022/11/11 14:54:40;;;;;;;1999.90;999.90;;;11.30;99.90;;;;;;4974311;28;20086;-83
2022/11/11 14:57:15;;;;;;;1999.90;999.90;;;11.20;99.90;;;;;;4997319;28;20487;-84
2022/11/11 14:59:41;;;;;;;1999.90;999.90;;;11.20;99.90;;;;;;4996914;28;20489;-84
2022/11/11 15:02:17;;;;;;;1999.90;999.90;;;11.10;99.90;;;;;;4996364;28;20034;-84
2022/11/11 15:04:43;;;;;;;1999.90;999.90;;;11.10;99.90;;;;;;4995885;28;20493;-84
2022/11/11 15:07:40;;;;;;;1999.90;999.90;;;10.90;99.90;;;;;;4996914;28;20035;-83
2022/11/11 15:10:21;;;;;;;1999.90;999.90;;;10.80;99.90;;;;;;5011099;28;20640;-86
2022/11/11 15:13:18;;;;;;;1999.90;999.90;;;10.80;99.90;;;;;;4995783;28;20039;-84
2022/11/11 15:15:52;;;;;;;1999.90;999.90;;;10.50;99.90;;;;;;4993935;28;20039;-85
2022/11/11 15:18:46;;;;;;;1999.90;999.90;;;10.40;99.90;;;;;;4994467;28;20446;-84
2022/11/11 15:21:32;;;;;;;1999.90;999.90;;;10.30;99.90;;;;;;4997134;28;20160;-85
2022/11/11 15:23:58;;;;;;;1999.90;999.90;;;10.20;99.90;;;;;;5020403;28;20054;-84
2022/11/11 15:26:36;;;;;;;1999.90;999.90;;;10.10;99.90;;;;;;5013370;28;20178;-84
2022/11/11 15:29:38;;;;;;;1999.90;999.90;;;10.00;99.90;;;;;;4995070;28;20062;-83
2022/11/11 15:32:39;;;;;;;1999.90;999.90;;;9.90;99.90;;;;;;4994473;28;20059;-84
2022/11/11 15:35:22;;;;;;;1999.90;999.90;;;9.70;99.90;;;;;;4996192;28;20097;-85
2022/11/11 15:37:53;;;;;;;1999.90;999.90;;;9.50;99.90;;;;;;4996026;28;20046;-85
2022/11/11 15:40:30;;;;;;;1999.90;999.90;;;9.40;99.90;;;;;;4995600;28;20121;-85
2022/11/11 15:42:56;;;;;;;1999.90;999.90;;;9.30;99.90;;;;;;4994945;28;20525;-85
2022/11/11 15:45:32;;;;;;;1999.90;999.90;;;9.20;99.90;;;;;;4994615;28;20122;-86
2022/11/11 15:47:59;;;;;;;1999.90;999.90;;;9.10;99.90;;;;;;4994262;28;20519;-83
2022/11/11 15:50:24;;;;;;;1999.90;999.90;;;9.00;99.90;;;;;;4993903;28;20050;-83
2022/11/11 15:52:55;;;;;;;1999.90;999.90;;;8.90;99.90;;;;;;4995403;28;20136;-88
2022/11/11 15:55:28;;;;;;;1999.90;999.90;;;8.80;99.90;;;;;;4994226;28;20043;-86
2022/11/11 15:57:54;;;;;;;1999.90;999.90;;;8.60;99.90;;;;;;4993831;28;20114;-85
2022/11/11 16:00:25;;;;;;;1999.90;999.90;;;8.40;99.90;;;;;;4994105;28;20095;-86
2022/11/11 16:02:53;;;;;;;1999.90;999.90;;;8.30;99.90;;;;;;4998239;28;20086;-85
2022/11/11 16:05:23;;;;;;;1999.90;999.90;;;8.10;99.90;;;;;;4998832;28;20417;-85
2022/11/11 16:07:50;;;;;;;1999.90;999.90;;;8.00;99.90;;;;;;4997549;28;20042;-84
2022/11/11 16:10:25;;;;;;;1999.90;999.90;;;7.90;99.90;;;;;;4998817;28;20066;-82
2022/11/11 16:12:56;;;;;;;1999.90;999.90;;;7.80;99.90;;;;;;4998065;28;20079;-82
2022/11/11 16:15:36;;;;;;;1999.90;999.90;;;7.70;99.90;;;;;;4998896;28;20542;-83
2022/11/11 16:18:06;;;;;;;1999.90;999.90;;;7.60;99.90;;;;;;5000474;28;20034;-86
2022/11/11 16:21:15;;;;;;;1999.90;999.90;;;7.50;99.90;;;;;;4998442;28;20070;-85
2022/11/11 16:23:41;;;;;;;1999.90;999.90;;;7.50;99.90;;;;;;5000724;28;20082;-80
2022/11/11 16:26:08;;;;;;;1999.90;999.90;;;7.40;99.90;;;;;;5001366;28;20035;-81
2022/11/11 16:28:55;;;;;;;1999.90;999.90;;;7.30;99.90;;;;;;5001619;28;20535;-82
2022/11/11 16:31:37;;;;;;;1999.90;999.90;;;7.20;99.90;;;;;;4998682;28;20031;-85
2022/11/11 16:34:28;;;;;;;1999.90;999.90;;;7.20;99.90;;;;;;4998339;28;20531;-82
2022/11/11 16:37:00;;;;;;;1999.90;999.90;;;7.10;99.90;;;;;;4997356;28;20533;-79
2022/11/11 16:39:27;;;;;;;1999.90;999.90;;;7.00;99.90;;;;;;4999994;28;20047;-79
2022/11/11 16:41:53;;;;;;;1999.90;999.90;;;7.00;99.90;;;;;;4999126;28;20075;-79
2022/11/11 16:44:39;;;;;;;1999.90;999.90;;;6.90;99.90;;;;;;5003509;28;20039;-78
2022/11/11 16:47:25;;;;;;;1999.90;999.90;;;6.80;99.90;;;;;;5006284;28;20058;-80
2022/11/11 16:50:00;;;;;;;1999.90;999.90;;;6.80;99.90;;;;;;5002775;28;20039;-78
2022/11/11 16:52:27;;;;;;;1999.90;999.90;;;6.70;99.90;;;;;;5004054;28;20184;-80
2022/11/11 16:54:56;;;;;;;1999.90;999.90;;;6.60;99.90;;;;;;5000333;28;20042;-79
2022/11/11 16:57:27;;;;;;;1999.90;999.90;;;6.60;99.90;;;;;;5002463;28;20027;-79
2022/11/11 17:00:01;;;;;;;1999.90;999.90;;;6.50;99.90;;;;;;5000382;28;20045;-78
2022/11/11 17:02:26;;;;;;;1999.90;999.90;;;6.40;99.90;;;;;;5000841;28;20076;-81
2022/11/11 17:04:55;;;;;;;1999.90;999.90;;;6.40;99.90;;;;;;5001347;28;20043;-82
2022/11/11 17:07:46;;;;;;;1999.90;999.90;;;6.40;99.90;;;;;;4998339;28;20030;-81
2022/11/11 17:10:22;;;;;;;1999.90;999.90;;;6.30;99.90;;;;;;4996611;28;20049;-81
2022/11/11 17:12:50;;;;;;;1999.90;999.90;;;6.30;99.90;;;;;;4998952;28;20031;-80
2022/11/11 17:15:18;;;;;;;1999.90;999.90;;;6.30;99.90;;;;;;5023143;23;20138;-76
2022/11/11 17:17:45;;;;;;;1999.90;999.90;;;6.30;99.90;;;;;;4976087;28;20043;-77
2022/11/11 17:20:21;;;;;;;1999.90;999.90;;;6.20;99.90;;;;;;4977984;28;20046;-77
2022/11/11 17:22:48;;;;;;;1999.90;999.90;;;6.10;99.90;;;;;;4977954;28;20035;-76
2022/11/11 17:25:14;;;;;;;1999.90;999.90;;;6.10;99.90;;;;;;4975743;28;20070;-75
2022/11/11 17:27:40;;;;;;;1999.90;999.90;;;6.00;99.90;;;;;;4978135;28;20521;-76
2022/11/11 17:30:07;;;;;;;1999.90;999.90;;;6.00;99.90;;;;;;4977195;28;20497;-77
2022/11/11 17:32:33;;;;;;;1999.90;999.90;;;6.00;99.90;;;;;;4973721;28;20031;-76
2022/11/11 17:34:59;;;;;;;1999.90;999.90;;;6.10;99.90;;;;;;4977118;28;20039;-75
2022/11/11 17:37:24;;;;;;;1999.90;999.90;;;6.10;99.90;;;;;;4977404;28;20035;-75
2022/11/11 17:39:50;;;;;;;1999.90;999.90;;;6.10;99.90;;;;;;4977435;28;20050;-75
2022/11/11 17:42:16;;;;;;;1999.90;999.90;;;6.10;99.90;;;;;;4978663;28;20055;-77
2022/11/11 17:44:41;;;;;;;1999.90;999.90;;;6.00;99.90;;;;;;4977024;28;20043;-76
2022/11/11 17:47:07;;;;;;;1999.90;999.90;;;6.00;99.90;;;;;;4976084;28;20027;-75
2022/11/11 17:49:33;;;;;;;1999.90;999.90;;;6.00;99.90;;;;;;4977299;28;20035;-76
2022/11/11 17:51:58;;;;;;;1999.90;999.90;;;5.90;99.90;;;;;;4977122;28;20035;-76